createdAt,value
2019-05-21T00:00:28.597Z,89.40
2019-05-21T00:02:57.907Z,89.78
2019-05-21T00:05:27.395Z,90.16
2019-05-21T00:07:56.716Z,90.11
2019-05-21T00:10:25.993Z,90.14
2019-05-21T00:12:55.247Z,90.37
2019-05-21T00:15:24.542Z,90.38
2019-05-21T00:17:53.810Z,90.67
2019-05-21T00:20:23.112Z,90.12
2019-05-21T00:22:52.411Z,90.18
2019-05-21T00:25:21.740Z,89.54
2019-05-21T00:27:51.014Z,89.78
2019-05-21T00:30:56.105Z,89.84
2019-05-21T00:34:01.376Z,89.40
2019-05-21T00:37:08.382Z,90.20
2019-05-21T00:40:13.453Z,89.73
2019-05-21T00:42:44.936Z,89.78
2019-05-21T00:45:14.426Z,90.33
2019-05-21T00:47:45.203Z,90.22
2019-05-21T00:50:14.685Z,90.33
2019-05-21T00:52:44.008Z,90.54
2019-05-21T00:55:13.413Z,90.81
2019-05-21T00:57:42.717Z,91.01
2019-05-21T01:00:12.636Z,90.94
2019-05-21T01:02:41.982Z,90.97
2019-05-21T01:05:11.276Z,91.27
2019-05-21T01:07:40.580Z,91.62
2019-05-21T01:10:10.057Z,91.39
2019-05-21T01:12:39.333Z,91.79
2019-05-21T01:15:09.662Z,91.79
2019-05-21T01:17:38.956Z,91.81
2019-05-21T01:20:08.671Z,92.01
2019-05-21T01:22:37.979Z,91.73
2019-05-21T01:25:07.571Z,92.07
2019-05-21T01:27:36.844Z,92.11
2019-05-21T01:30:06.810Z,92.00
2019-05-21T01:32:36.156Z,92.16
2019-05-21T01:35:16.545Z,92.30
2019-05-21T01:37:36.708Z,91.76
2019-05-21T01:40:06.011Z,91.66
2019-05-21T01:42:35.304Z,91.88
2019-05-21T01:45:05.360Z,92.38
2019-05-21T01:47:34.662Z,92.93
2019-05-21T01:50:03.970Z,92.64
2019-05-21T01:52:34.281Z,92.44
2019-05-21T01:55:03.577Z,92.42
2019-05-21T01:57:32.874Z,92.71
2019-05-21T02:00:03.006Z,92.54
2019-05-21T02:02:32.295Z,92.20
2019-05-21T02:05:01.594Z,92.49
2019-05-21T02:07:30.969Z,92.47
2019-05-21T02:10:00.382Z,92.26
2019-05-21T02:12:29.670Z,92.42
2019-05-21T02:15:00.348Z,92.27
2019-05-21T02:17:29.649Z,92.11
2019-05-21T02:19:58.957Z,92.15
2019-05-21T02:22:29.360Z,92.49
2019-05-21T02:24:58.666Z,92.47
2019-05-21T02:27:27.974Z,92.50
2019-05-21T02:29:57.266Z,92.42
2019-05-21T02:32:26.559Z,92.77
2019-05-21T02:34:55.880Z,92.68
2019-05-21T02:37:25.162Z,92.56
2019-05-21T02:39:54.490Z,92.57
2019-05-21T02:42:23.813Z,92.69
2019-05-21T02:44:54.523Z,92.88
2019-05-21T02:47:24.150Z,92.69
2019-05-21T02:49:53.462Z,92.79
2019-05-21T02:52:24.206Z,92.63
2019-05-21T02:54:54.973Z,93.08
2019-05-21T02:57:27.351Z,93.05
2019-05-21T02:59:58.441Z,92.93
2019-05-21T03:02:36.763Z,92.88
2019-05-21T03:05:07.109Z,93.10
2019-05-21T03:07:37.874Z,93.11
2019-05-21T03:10:08.859Z,92.97
2019-05-21T03:12:38.184Z,93.00
2019-05-21T03:15:07.986Z,93.12
2019-05-21T03:17:37.290Z,93.09
2019-05-21T03:20:06.711Z,92.91
2019-05-21T03:22:36.062Z,92.84
2019-05-21T03:25:05.699Z,92.66
2019-05-21T03:27:35.018Z,92.97
2019-05-21T03:30:04.662Z,93.04
2019-05-21T03:32:33.966Z,93.08
2019-05-21T03:35:03.530Z,93.04
2019-05-21T03:37:32.806Z,92.79
2019-05-21T03:40:03.097Z,92.79
2019-05-21T03:42:32.435Z,92.81
2019-05-21T03:45:01.826Z,93.28
2019-05-21T03:47:31.269Z,93.48
2019-05-21T03:50:00.577Z,93.05
2019-05-21T03:52:29.871Z,92.65
2019-05-21T03:55:02.825Z,92.97
2019-05-21T03:57:30.213Z,92.24
2019-05-21T03:59:59.583Z,92.25
2019-05-21T04:02:28.917Z,92.16
2019-05-21T04:04:58.285Z,92.41
2019-05-21T04:07:27.563Z,92.39
2019-05-21T04:09:56.890Z,92.39
2019-05-21T04:12:26.247Z,92.24
2019-05-21T04:14:59.802Z,92.09
2019-05-21T04:17:54.116Z,91.75
2019-05-21T04:20:23.420Z,91.66
2019-05-21T04:22:52.720Z,92.06
2019-05-21T04:25:23.304Z,91.93
2019-05-21T04:27:52.828Z,91.70
2019-05-21T04:30:22.103Z,91.32
2019-05-21T04:32:51.408Z,91.57
2019-05-21T04:35:20.686Z,91.59
2019-05-21T04:37:49.953Z,91.12
2019-05-21T04:40:19.228Z,91.09
2019-05-21T04:42:48.551Z,91.42
2019-05-21T04:45:17.990Z,90.54
2019-05-21T04:47:47.284Z,90.94
2019-05-21T04:50:16.549Z,90.52
2019-05-21T04:52:45.811Z,91.06
2019-05-21T04:55:15.135Z,90.36
2019-05-21T04:57:44.412Z,90.27
2019-05-21T05:00:13.914Z,90.66
2019-05-21T05:02:43.192Z,91.19
2019-05-21T05:05:14.797Z,90.75
2019-05-21T05:07:44.786Z,90.97
2019-05-21T05:10:15.196Z,91.00
2019-05-21T05:12:47.022Z,91.54
2019-05-21T05:15:18.435Z,91.17
2019-05-21T05:17:48.414Z,90.82
2019-05-21T05:20:18.551Z,90.75
2019-05-21T05:22:48.160Z,89.89
2019-05-21T05:25:18.010Z,89.98
2019-05-21T05:27:47.612Z,90.30
2019-05-21T05:30:17.618Z,89.81
2019-05-21T05:32:47.797Z,89.74
2019-05-21T05:35:18.755Z,89.32
2019-05-21T05:37:49.166Z,89.66
2019-05-21T05:40:20.559Z,88.84
2019-05-21T05:42:49.980Z,89.18
2019-05-21T05:45:21.484Z,88.63
2019-05-21T05:47:50.943Z,88.74
2019-05-21T05:50:22.498Z,88.18
2019-05-21T05:52:51.971Z,88.18
2019-05-21T05:55:21.636Z,88.77
2019-05-21T05:57:51.096Z,88.25
2019-05-21T06:00:21.313Z,87.18
2019-05-21T06:02:50.592Z,87.27
2019-05-21T06:05:19.884Z,87.11
2019-05-21T06:07:59.242Z,86.81
2019-05-21T06:10:22.027Z,87.04
2019-05-21T06:12:51.312Z,86.52
2019-05-21T06:15:21.975Z,86.57
2019-05-21T06:17:51.545Z,85.57
2019-05-21T06:20:22.135Z,85.58
2019-05-21T06:22:51.402Z,85.50
2019-05-21T06:25:20.712Z,86.02
2019-05-21T06:27:50.021Z,86.00
2019-05-21T06:30:20.107Z,85.94
2019-05-21T06:32:49.390Z,86.22
2019-05-21T06:35:18.737Z,85.36
2019-05-21T06:37:48.064Z,85.51
2019-05-21T06:40:18.353Z,85.67
2019-05-21T06:42:47.653Z,85.38
2019-05-21T06:45:18.746Z,85.58
2019-05-21T06:47:48.085Z,85.62
2019-05-21T06:50:17.402Z,85.89
2019-05-21T06:52:46.729Z,85.44
2019-05-21T06:55:16.081Z,84.94
2019-05-21T06:57:45.377Z,84.96
2019-05-21T07:00:15.519Z,85.42
2019-05-21T07:02:44.818Z,84.55
2019-05-21T07:05:14.107Z,84.69
2019-05-21T07:07:43.422Z,84.51
2019-05-21T07:10:13.046Z,84.34
2019-05-21T07:12:42.335Z,84.79
2019-05-21T07:15:12.038Z,84.27
2019-05-21T07:17:41.375Z,84.31
2019-05-21T07:20:12.545Z,84.00
2019-05-21T07:22:41.902Z,85.12
2019-05-21T07:25:11.491Z,84.57
2019-05-21T07:27:40.792Z,84.96
2019-05-21T07:30:11.235Z,85.48
2019-05-21T07:32:40.600Z,84.84
2019-05-21T07:35:10.073Z,84.60
2019-05-21T07:37:39.418Z,84.16
2019-05-21T07:40:09.984Z,84.16
2019-05-21T07:42:39.390Z,84.68
2019-05-21T07:45:08.925Z,84.31
2019-05-21T07:47:38.262Z,83.59
2019-05-21T07:50:08.177Z,83.61
2019-05-21T07:52:37.474Z,83.02
2019-05-21T07:55:07.104Z,83.28
2019-05-21T07:57:36.386Z,83.76
2019-05-21T08:00:07.459Z,83.04
2019-05-21T08:02:36.765Z,82.87
2019-05-21T08:05:06.667Z,82.82
2019-05-21T08:07:35.951Z,83.10
2019-05-21T08:10:06.425Z,82.46
2019-05-21T08:12:39.519Z,82.88
2019-05-21T08:15:07.670Z,83.35
2019-05-21T08:17:36.932Z,83.88
2019-05-21T08:20:10.231Z,83.87
2019-05-21T08:22:39.256Z,83.58
2019-05-21T08:25:08.668Z,83.65
2019-05-21T08:27:37.944Z,84.14
2019-05-21T08:30:07.649Z,84.40
2019-05-21T08:32:36.970Z,84.85
2019-05-21T08:35:06.932Z,85.10
2019-05-21T08:37:36.208Z,84.29
2019-05-21T08:40:06.162Z,85.23
2019-05-21T08:42:35.423Z,84.42
2019-05-21T08:45:06.155Z,84.40
2019-05-21T08:47:35.550Z,84.26
2019-05-21T08:50:05.825Z,84.12
2019-05-21T08:52:35.181Z,84.59
2019-05-21T08:55:04.830Z,83.93
2019-05-21T08:57:34.136Z,84.28
2019-05-21T09:00:03.438Z,84.23
2019-05-21T09:02:32.767Z,84.61
2019-05-21T09:05:02.066Z,84.42
2019-05-21T09:07:31.408Z,84.52
2019-05-21T09:10:00.694Z,84.31
2019-05-21T09:12:30.032Z,84.88
2019-05-21T09:14:59.310Z,84.82
2019-05-21T09:17:28.661Z,85.23
2019-05-21T09:19:57.965Z,84.51
2019-05-21T09:22:27.234Z,84.59
2019-05-21T09:24:56.574Z,84.47
2019-05-21T09:27:25.874Z,85.24
2019-05-21T09:29:56.394Z,83.71
2019-05-21T09:32:25.778Z,83.65
2019-05-21T09:34:55.058Z,83.96
2019-05-21T09:37:24.321Z,83.61
2019-05-21T09:39:53.718Z,83.72
2019-05-21T09:42:22.967Z,84.80
2019-05-21T09:44:52.253Z,84.27
2019-05-21T09:47:21.533Z,83.46
2019-05-21T09:49:50.854Z,83.63
2019-05-21T09:52:20.120Z,83.83
2019-05-21T09:54:49.369Z,84.18
2019-05-21T09:57:23.923Z,83.54
2019-05-21T10:00:01.274Z,83.86
2019-05-21T10:02:31.712Z,83.73
2019-05-21T10:05:02.183Z,83.62
2019-05-21T10:07:39.937Z,84.15
2019-05-21T10:10:02.944Z,84.52
2019-05-21T10:12:32.238Z,85.23
2019-05-21T10:15:01.507Z,84.71
2019-05-21T10:17:30.851Z,84.53
2019-05-21T10:20:00.259Z,82.88
2019-05-21T10:22:29.573Z,83.02
2019-05-21T10:24:58.847Z,83.53
2019-05-21T10:27:28.177Z,82.57
2019-05-21T10:29:57.563Z,83.02
2019-05-21T10:32:26.906Z,82.89
2019-05-21T10:34:56.190Z,82.42
2019-05-21T10:37:25.492Z,82.64
2019-05-21T10:39:54.826Z,83.10
2019-05-21T10:42:25.140Z,83.04
2019-05-21T10:44:55.642Z,82.91
2019-05-21T10:47:24.920Z,82.94
2019-05-21T10:49:54.252Z,83.17
2019-05-21T10:52:23.797Z,83.07
2019-05-21T10:54:53.172Z,83.42
2019-05-21T10:57:22.475Z,83.18
2019-05-21T10:59:51.849Z,83.32
2019-05-21T11:02:37.314Z,82.66
2019-05-21T11:05:10.754Z,82.41
2019-05-21T11:07:40.067Z,83.29
2019-05-21T11:10:10.272Z,82.99
2019-05-21T11:12:39.557Z,82.38
2019-05-21T11:15:10.694Z,82.81
2019-05-21T11:17:53.407Z,83.46
2019-05-21T11:20:11.698Z,83.39
2019-05-21T11:22:41.007Z,82.85
2019-05-21T11:25:10.582Z,82.84
2019-05-21T11:27:39.993Z,81.72
2019-05-21T11:30:10.013Z,81.93
2019-05-21T11:32:39.325Z,82.03
2019-05-21T11:35:09.094Z,82.39
2019-05-21T11:37:38.389Z,82.67
2019-05-21T11:40:09.426Z,82.82
2019-05-21T11:42:38.730Z,81.88
2019-05-21T11:45:08.928Z,82.52
2019-05-21T11:47:38.277Z,81.70
2019-05-21T11:50:08.171Z,81.63
2019-05-21T11:52:37.507Z,80.92
2019-05-21T11:55:07.306Z,81.68
2019-05-21T11:57:36.587Z,81.02
2019-05-21T12:00:08.240Z,80.94
2019-05-21T12:02:37.516Z,81.10
2019-05-21T12:05:07.145Z,81.02
2019-05-21T12:07:36.715Z,82.06
2019-05-21T12:10:07.081Z,82.71
2019-05-21T12:12:36.339Z,82.68
2019-05-21T12:15:06.323Z,81.29
2019-05-21T12:17:35.795Z,80.17
2019-05-21T12:20:06.798Z,78.99
2019-05-21T12:22:37.111Z,77.71
2019-05-21T12:25:07.493Z,78.52
2019-05-21T12:27:37.043Z,76.70
2019-05-21T12:30:07.439Z,76.73
2019-05-21T12:32:36.720Z,77.52
2019-05-21T12:35:07.654Z,77.96
2019-05-21T12:37:36.990Z,78.69
2019-05-21T12:40:08.330Z,79.59
2019-05-21T12:42:37.630Z,78.97
2019-05-21T12:45:08.037Z,78.83
2019-05-21T12:47:37.359Z,80.06
2019-05-21T12:50:07.161Z,79.72
2019-05-21T12:52:36.494Z,81.89
2019-05-21T12:55:06.261Z,82.81
2019-05-21T12:57:35.554Z,84.61
2019-05-21T13:00:06.675Z,85.46
2019-05-21T13:02:35.967Z,86.05
2019-05-21T13:05:05.602Z,86.30
2019-05-21T13:07:34.852Z,85.96
2019-05-21T13:10:05.334Z,86.71
2019-05-21T13:12:34.734Z,86.90
2019-05-21T13:15:04.059Z,86.78
2019-05-21T13:17:34.838Z,87.59
2019-05-21T13:20:05.141Z,87.41
2019-05-21T13:22:34.598Z,88.33
2019-05-21T13:25:03.941Z,88.08
2019-05-21T13:27:34.799Z,89.03
2019-05-21T13:30:05.064Z,89.02
2019-05-21T13:32:34.320Z,89.82
2019-05-21T13:35:03.667Z,89.95
2019-05-21T13:37:33.189Z,90.18
2019-05-21T13:40:02.488Z,90.33
2019-05-21T13:42:31.794Z,90.70
2019-05-21T13:45:01.085Z,90.65
2019-05-21T13:47:30.384Z,90.87
2019-05-21T13:49:59.692Z,90.81
2019-05-21T13:52:29.036Z,90.65
2019-05-21T13:54:58.328Z,90.84
2019-05-21T13:57:28.017Z,90.87
2019-05-21T13:59:57.323Z,91.04
2019-05-21T14:02:26.985Z,90.05
2019-05-21T14:04:59.490Z,90.62
2019-05-21T14:07:28.865Z,90.17
2019-05-21T14:10:13.360Z,89.79
2019-05-21T14:12:29.573Z,89.32
2019-05-21T14:14:58.880Z,89.05
2019-05-21T14:17:28.243Z,88.98
2019-05-21T14:19:57.515Z,88.85
2019-05-21T14:22:26.818Z,88.96
2019-05-21T14:24:56.318Z,88.55
2019-05-21T14:27:41.654Z,88.85
2019-05-21T14:29:56.730Z,88.58
2019-05-21T14:32:27.117Z,88.60
2019-05-21T14:35:01.418Z,88.50
2019-05-21T14:37:27.459Z,88.43
2019-05-21T14:39:56.768Z,88.93
2019-05-21T14:42:26.057Z,88.54
2019-05-21T14:44:55.398Z,87.83
2019-05-21T14:47:24.691Z,87.26
2019-05-21T14:49:54.014Z,86.65
2019-05-21T14:52:23.260Z,87.10
2019-05-21T14:54:52.586Z,86.90
2019-05-21T14:57:21.838Z,87.22
2019-05-21T14:59:52.916Z,87.14
2019-05-21T15:02:22.194Z,87.14
2019-05-21T15:04:51.632Z,87.69
2019-05-21T15:07:20.975Z,88.04
2019-05-21T15:09:53.357Z,87.67
2019-05-21T15:12:21.273Z,87.58
2019-05-21T15:14:50.553Z,87.66
2019-05-21T15:17:19.882Z,87.40
2019-05-21T15:19:53.312Z,87.94
2019-05-21T15:22:22.606Z,87.97
2019-05-21T15:24:51.903Z,87.75
2019-05-21T15:27:21.265Z,87.31
2019-05-21T15:29:50.600Z,86.84
2019-05-21T15:32:19.867Z,87.21
2019-05-21T15:34:49.170Z,86.64
2019-05-21T15:37:18.764Z,87.30
2019-05-21T15:39:48.249Z,87.46
2019-05-21T15:42:17.547Z,87.21
2019-05-21T15:44:46.832Z,87.51
2019-05-21T15:47:16.327Z,87.44
2019-05-21T15:49:45.638Z,87.76
2019-05-21T15:52:14.938Z,87.92
2019-05-21T15:54:44.268Z,88.01
2019-05-21T15:57:13.555Z,87.89
2019-05-21T15:59:43.010Z,88.77
2019-05-21T16:02:12.367Z,88.66
2019-05-21T16:04:41.744Z,88.71
2019-05-21T16:07:11.348Z,88.42
2019-05-21T16:09:40.616Z,88.55
2019-05-21T16:12:12.484Z,88.36
2019-05-21T16:14:41.780Z,88.76
2019-05-21T16:17:12.179Z,89.12
2019-05-21T16:19:41.523Z,89.24
2019-05-21T16:22:10.987Z,89.86
2019-05-21T16:24:41.637Z,89.37
2019-05-21T16:27:12.892Z,89.38
2019-05-21T16:29:44.136Z,89.35
2019-05-21T16:32:13.440Z,89.65
2019-05-21T16:34:43.694Z,89.53
2019-05-21T16:37:13.088Z,89.23
2019-05-21T16:39:42.384Z,89.46
2019-05-21T16:42:11.692Z,89.50
2019-05-21T16:44:41.045Z,89.68
2019-05-21T16:47:10.637Z,89.31
2019-05-21T16:49:39.934Z,89.70
2019-05-21T16:52:09.633Z,90.05
2019-05-21T16:54:40.096Z,89.94
2019-05-21T16:57:10.971Z,89.87
2019-05-21T16:59:40.372Z,89.99
2019-05-21T17:02:11.475Z,89.99
2019-05-21T17:04:41.392Z,90.01
2019-05-21T17:07:11.101Z,89.41
2019-05-21T17:09:40.646Z,89.53
2019-05-21T17:12:10.327Z,89.38
2019-05-21T17:14:40.243Z,89.36
2019-05-21T17:17:09.744Z,89.39
2019-05-21T17:19:39.589Z,89.40
2019-05-21T17:22:10.301Z,89.62
2019-05-21T17:24:39.899Z,90.00
2019-05-21T17:27:10.524Z,90.12
2019-05-21T17:29:39.965Z,89.91
2019-05-21T17:32:09.469Z,89.58
2019-05-21T17:34:39.053Z,89.31
2019-05-21T17:37:09.399Z,89.09
2019-05-21T17:39:39.009Z,89.08
2019-05-21T17:42:15.703Z,88.84
2019-05-21T17:44:39.618Z,88.69
2019-05-21T17:47:10.773Z,88.81
2019-05-21T17:49:40.098Z,88.74
2019-05-21T17:52:09.453Z,88.98
2019-05-21T17:54:55.263Z,88.68
2019-05-21T17:57:10.034Z,88.92
2019-05-21T17:59:39.345Z,88.90
2019-05-21T18:02:12.656Z,89.25
2019-05-21T18:04:42.381Z,88.87
2019-05-21T18:07:14.985Z,89.08
2019-05-21T18:09:44.370Z,89.14
2019-05-21T18:12:29.752Z,89.49
2019-05-21T18:14:47.334Z,89.01
2019-05-21T18:17:18.457Z,89.14
2019-05-21T18:19:49.293Z,89.29
2019-05-21T18:22:19.680Z,89.51
2019-05-21T18:24:49.886Z,89.18
2019-05-21T18:27:20.307Z,89.02
2019-05-21T18:29:49.761Z,88.79
2019-05-21T18:32:19.213Z,88.83
2019-05-21T18:34:48.891Z,88.87
2019-05-21T18:37:18.532Z,88.76
2019-05-21T18:39:49.652Z,89.22
2019-05-21T18:42:22.487Z,88.71
2019-05-21T18:44:51.254Z,89.40
2019-05-21T18:47:20.613Z,88.75
2019-05-21T18:49:51.045Z,88.96
2019-05-21T18:52:20.349Z,88.79
2019-05-21T18:54:50.683Z,88.98
2019-05-21T18:57:19.983Z,89.24
2019-05-21T18:59:49.437Z,89.23
2019-05-21T19:02:18.927Z,89.38
2019-05-21T19:04:48.248Z,88.94
2019-05-21T19:07:17.618Z,89.46
2019-05-21T19:09:46.953Z,89.14
2019-05-21T19:12:16.607Z,88.85
2019-05-21T19:14:45.930Z,89.14
2019-05-21T19:17:16.812Z,89.24
2019-05-21T19:19:48.058Z,88.90
2019-05-21T19:22:19.403Z,89.09
2019-05-21T19:24:49.072Z,89.55
2019-05-21T19:27:18.847Z,89.46
2019-05-21T19:29:48.936Z,89.21
2019-05-21T19:32:18.270Z,89.27
2019-05-21T19:34:47.671Z,90.07
2019-05-21T19:37:17.029Z,90.44
2019-05-21T19:39:46.512Z,89.95
2019-05-21T19:42:15.873Z,90.00
2019-05-21T19:44:45.220Z,90.18
2019-05-21T19:47:14.616Z,89.80
2019-05-21T19:49:43.903Z,89.99
2019-05-21T19:52:14.427Z,89.88
2019-05-21T19:54:43.872Z,89.96
2019-05-21T19:57:13.541Z,89.92
2019-05-21T19:59:42.971Z,89.85
2019-05-21T20:02:13.337Z,90.21
2019-05-21T20:04:43.275Z,90.02
2019-05-21T20:07:15.151Z,90.16
2019-05-21T20:09:45.447Z,90.63
2019-05-21T20:12:15.391Z,90.96
2019-05-21T20:14:45.960Z,90.98
2019-05-21T20:17:17.110Z,90.60
2019-05-21T20:19:47.668Z,91.01
2019-05-21T20:22:17.708Z,90.63
2019-05-21T20:24:47.494Z,90.82
2019-05-21T20:27:17.666Z,90.95
2019-05-21T20:29:47.245Z,91.26
2019-05-21T20:32:19.569Z,91.45
2019-05-21T20:34:51.515Z,90.98
2019-05-21T20:37:26.500Z,91.64
2019-05-21T20:39:57.068Z,91.94
2019-05-21T20:42:29.093Z,91.72
2019-05-21T20:44:59.229Z,91.60
2019-05-21T20:47:28.905Z,91.70
2019-05-21T20:49:58.579Z,91.44
2019-05-21T20:52:28.128Z,91.85
2019-05-21T20:54:59.491Z,91.59
2019-05-21T20:57:31.690Z,92.02
2019-05-21T21:00:02.208Z,92.25
2019-05-21T21:02:32.392Z,92.16
2019-05-21T21:05:03.225Z,92.68
2019-05-21T21:07:34.184Z,92.58
2019-05-21T21:10:03.802Z,93.01
2019-05-21T21:12:38.539Z,93.20
2019-05-21T21:15:08.501Z,93.31
2019-05-21T21:17:38.192Z,92.93
2019-05-21T21:20:08.148Z,92.91
2019-05-21T21:22:38.230Z,93.03
2019-05-21T21:25:10.227Z,92.67
2019-05-21T21:27:40.333Z,92.63
2019-05-21T21:30:10.252Z,92.70
2019-05-21T21:32:40.059Z,92.85
2019-05-21T21:35:10.780Z,93.34
2019-05-21T21:37:40.518Z,92.85
2019-05-21T21:40:12.148Z,92.67
2019-05-21T21:42:42.674Z,92.55
2019-05-21T21:45:12.587Z,92.61
2019-05-21T21:47:42.760Z,92.58
2019-05-21T21:50:14.261Z,92.31
2019-05-21T21:52:44.342Z,92.25
2019-05-21T21:55:14.095Z,92.13
2019-05-21T21:57:43.382Z,92.00
2019-05-21T22:01:17.857Z,92.28
2019-05-21T22:03:48.745Z,92.53
2019-05-21T22:06:20.240Z,91.95
2019-05-21T22:08:50.760Z,91.68
2019-05-21T22:11:21.563Z,91.64
2019-05-21T22:13:50.939Z,91.73
2019-05-21T22:16:22.184Z,91.75
2019-05-21T22:18:51.558Z,92.22
2019-05-21T22:21:22.395Z,91.83
2019-05-21T22:23:51.746Z,91.83
2019-05-21T22:26:21.894Z,91.71
2019-05-21T22:28:51.260Z,91.65
2019-05-21T22:31:20.571Z,91.69
2019-05-21T22:33:49.870Z,91.61
2019-05-21T22:36:19.372Z,91.63
2019-05-21T22:38:48.877Z,91.35
2019-05-21T22:41:18.455Z,91.98
2019-05-21T22:43:47.756Z,91.75
2019-05-21T22:46:17.028Z,91.17
2019-05-21T22:48:46.630Z,91.68
2019-05-21T22:51:16.223Z,92.07
2019-05-21T22:53:45.607Z,91.90
2019-05-21T22:56:15.006Z,91.79
2019-05-21T22:58:44.272Z,91.62
2019-05-21T23:01:14.273Z,91.77
2019-05-21T23:03:44.271Z,91.92
2019-05-21T23:06:13.745Z,92.24
2019-05-21T23:08:43.302Z,92.14
2019-05-21T23:11:12.593Z,92.25
2019-05-21T23:13:41.852Z,92.72
2019-05-21T23:16:11.527Z,92.45
2019-05-21T23:18:41.328Z,92.92
2019-05-21T23:21:13.092Z,92.97
2019-05-21T23:23:44.034Z,92.70
2019-05-21T23:26:13.737Z,92.96
2019-05-21T23:28:44.825Z,92.92
2019-05-21T23:31:16.099Z,92.49
2019-05-21T23:33:45.638Z,92.58
2019-05-21T23:36:15.036Z,93.16
2019-05-21T23:38:45.203Z,92.83
2019-05-21T23:41:14.667Z,92.50
2019-05-21T23:43:43.933Z,92.70
2019-05-21T23:46:14.409Z,92.47
2019-05-21T23:48:43.977Z,92.81
2019-05-21T23:51:13.299Z,92.27
2019-05-21T23:53:42.860Z,92.00
2019-05-21T23:56:12.146Z,92.73
2019-05-21T23:58:41.806Z,91.86
